sensor_id;sensor_type;location;lat;lon;timestamp;P1;durP1;ratioP1;P2;durP2;ratioP2
74269;SDS011;62754;48.252;11.654;2023-05-14T00:01:00;11.80;;;7.75;;
74269;SDS011;62754;48.252;11.654;2023-05-14T00:03:30;11.75;;;8.00;;
74269;SDS011;62754;48.252;11.654;2023-05-14T00:05:59;12.15;;;8.23;;
74269;SDS011;62754;48.252;11.654;2023-05-14T00:08:24;12.63;;;8.02;;
74269;SDS011;62754;48.252;11.654;2023-05-14T00:10:50;9.57;;;6.72;;
74269;SDS011;62754;48.252;11.654;2023-05-14T00:13:19;15.30;;;8.52;;
74269;SDS011;62754;48.252;11.654;2023-05-14T00:15:46;13.73;;;8.02;;
74269;SDS011;62754;48.252;11.654;2023-05-14T00:18:12;11.82;;;7.63;;
74269;SDS011;62754;48.252;11.654;2023-05-14T00:20:40;11.82;;;7.85;;
74269;SDS011;62754;48.252;11.654;2023-05-14T00:23:06;14.55;;;8.10;;
74269;SDS011;62754;48.252;11.654;2023-05-14T00:25:34;11.90;;;8.63;;
74269;SDS011;62754;48.252;11.654;2023-05-14T00:28:02;14.02;;;8.48;;
74269;SDS011;62754;48.252;11.654;2023-05-14T00:30:28;12.45;;;8.40;;
74269;SDS011;62754;48.252;11.654;2023-05-14T00:32:57;12.52;;;8.15;;
74269;SDS011;62754;48.252;11.654;2023-05-14T00:35:25;13.55;;;8.10;;
74269;SDS011;62754;48.252;11.654;2023-05-14T00:37:50;12.80;;;8.48;;
74269;SDS011;62754;48.252;11.654;2023-05-14T00:40:18;15.75;;;8.15;;
74269;SDS011;62754;48.252;11.654;2023-05-14T00:42:44;12.75;;;8.48;;
74269;SDS011;62754;48.252;11.654;2023-05-14T00:45:10;14.13;;;8.77;;
74269;SDS011;62754;48.252;11.654;2023-05-14T00:47:36;13.98;;;8.95;;
74269;SDS011;62754;48.252;11.654;2023-05-14T00:50:04;14.45;;;8.05;;
74269;SDS011;62754;48.252;11.654;2023-05-14T00:52:31;15.05;;;8.77;;
74269;SDS011;62754;48.252;11.654;2023-05-14T00:54:57;11.50;;;7.68;;
74269;SDS011;62754;48.252;11.654;2023-05-14T00:57:27;12.57;;;7.53;;
74269;SDS011;62754;48.252;11.654;2023-05-14T00:59:53;12.77;;;7.63;;
74269;SDS011;62754;48.252;11.654;2023-05-14T01:02:21;13.85;;;8.02;;
74269;SDS011;62754;48.252;11.654;2023-05-14T01:04:46;12.00;;;8.48;;
74269;SDS011;62754;48.252;11.654;2023-05-14T01:10:26;13.02;;;7.97;;
74269;SDS011;62754;48.252;11.654;2023-05-14T01:13:03;12.40;;;7.55;;
74269;SDS011;62754;48.252;11.654;2023-05-14T01:15:52;12.02;;;8.43;;
74269;SDS011;62754;48.252;11.654;2023-05-14T01:18:23;12.50;;;8.00;;
74269;SDS011;62754;48.252;11.654;2023-05-14T01:20:54;10.95;;;7.30;;
74269;SDS011;62754;48.252;11.654;2023-05-14T01:23:20;13.13;;;8.38;;
74269;SDS011;62754;48.252;11.654;2023-05-14T01:25:48;12.07;;;7.70;;
74269;SDS011;62754;48.252;11.654;2023-05-14T01:30:46;12.90;;;7.43;;
74269;SDS011;62754;48.252;11.654;2023-05-14T01:33:14;11.98;;;7.68;;
74269;SDS011;62754;48.252;11.654;2023-05-14T01:35:44;13.50;;;8.70;;
74269;SDS011;62754;48.252;11.654;2023-05-14T01:38:13;12.20;;;7.57;;
74269;SDS011;62754;48.252;11.654;2023-05-14T01:40:42;13.80;;;7.35;;
74269;SDS011;62754;48.252;11.654;2023-05-14T01:43:10;13.18;;;6.80;;
74269;SDS011;62754;48.252;11.654;2023-05-14T01:45:36;11.00;;;7.57;;
74269;SDS011;62754;48.252;11.654;2023-05-14T01:48:05;11.32;;;6.80;;
74269;SDS011;62754;48.252;11.654;2023-05-14T01:50:30;10.80;;;7.25;;
74269;SDS011;62754;48.252;11.654;2023-05-14T01:52:56;11.13;;;7.32;;
74269;SDS011;62754;48.252;11.654;2023-05-14T01:55:22;10.80;;;7.13;;
74269;SDS011;62754;48.252;11.654;2023-05-14T01:57:51;11.15;;;7.50;;
74269;SDS011;62754;48.252;11.654;2023-05-14T02:00:19;11.55;;;7.22;;
74269;SDS011;62754;48.252;11.654;2023-05-14T02:02:48;10.63;;;6.60;;
74269;SDS011;62754;48.252;11.654;2023-05-14T02:05:16;12.65;;;7.00;;
74269;SDS011;62754;48.252;11.654;2023-05-14T02:07:44;11.00;;;7.25;;
74269;SDS011;62754;48.252;11.654;2023-05-14T02:10:12;10.38;;;6.85;;
74269;SDS011;62754;48.252;11.654;2023-05-14T02:12:38;10.30;;;6.47;;
74269;SDS011;62754;48.252;11.654;2023-05-14T02:15:03;12.73;;;7.18;;
74269;SDS011;62754;48.252;11.654;2023-05-14T02:17:30;10.75;;;6.93;;
74269;SDS011;62754;48.252;11.654;2023-05-14T02:19:58;10.90;;;6.63;;
74269;SDS011;62754;48.252;11.654;2023-05-14T02:22:23;9.93;;;7.07;;
74269;SDS011;62754;48.252;11.654;2023-05-14T02:24:51;10.32;;;6.90;;
74269;SDS011;62754;48.252;11.654;2023-05-14T02:27:19;9.75;;;7.30;;
74269;SDS011;62754;48.252;11.654;2023-05-14T02:29:47;10.02;;;7.07;;
74269;SDS011;62754;48.252;11.654;2023-05-14T02:32:16;10.68;;;6.70;;
74269;SDS011;62754;48.252;11.654;2023-05-14T02:34:44;11.32;;;7.43;;
74269;SDS011;62754;48.252;11.654;2023-05-14T02:37:11;10.07;;;7.22;;
74269;SDS011;62754;48.252;11.654;2023-05-14T02:39:37;11.73;;;7.72;;
74269;SDS011;62754;48.252;11.654;2023-05-14T02:42:05;10.70;;;7.20;;
74269;SDS011;62754;48.252;11.654;2023-05-14T02:44:31;14.57;;;7.78;;
74269;SDS011;62754;48.252;11.654;2023-05-14T02:46:59;10.05;;;7.20;;
74269;SDS011;62754;48.252;11.654;2023-05-14T02:49:27;12.52;;;8.02;;
74269;SDS011;62754;48.252;11.654;2023-05-14T02:51:58;12.60;;;7.13;;
74269;SDS011;62754;48.252;11.654;2023-05-14T02:54:24;11.23;;;7.20;;
74269;SDS011;62754;48.252;11.654;2023-05-14T02:56:49;12.65;;;8.40;;
74269;SDS011;62754;48.252;11.654;2023-05-14T02:59:18;10.48;;;7.22;;
74269;SDS011;62754;48.252;11.654;2023-05-14T03:01:44;12.18;;;8.10;;
74269;SDS011;62754;48.252;11.654;2023-05-14T03:04:09;12.60;;;7.72;;
74269;SDS011;62754;48.252;11.654;2023-05-14T03:06:37;13.35;;;7.75;;
74269;SDS011;62754;48.252;11.654;2023-05-14T03:09:03;11.90;;;8.27;;
74269;SDS011;62754;48.252;11.654;2023-05-14T03:11:31;14.05;;;8.02;;
74269;SDS011;62754;48.252;11.654;2023-05-14T03:13:59;12.13;;;7.50;;
74269;SDS011;62754;48.252;11.654;2023-05-14T03:16:27;13.68;;;8.38;;
74269;SDS011;62754;48.252;11.654;2023-05-14T03:18:53;10.27;;;7.47;;
74269;SDS011;62754;48.252;11.654;2023-05-14T03:21:21;12.63;;;8.20;;
74269;SDS011;62754;48.252;11.654;2023-05-14T03:23:52;12.90;;;8.45;;
74269;SDS011;62754;48.252;11.654;2023-05-14T03:26:21;14.68;;;8.65;;
74269;SDS011;62754;48.252;11.654;2023-05-14T03:28:47;14.80;;;8.93;;
74269;SDS011;62754;48.252;11.654;2023-05-14T03:31:13;15.20;;;8.43;;
74269;SDS011;62754;48.252;11.654;2023-05-14T03:33:38;12.15;;;7.93;;
74269;SDS011;62754;48.252;11.654;2023-05-14T03:36:04;13.38;;;8.70;;
74269;SDS011;62754;48.252;11.654;2023-05-14T03:38:39;13.60;;;8.55;;
74269;SDS011;62754;48.252;11.654;2023-05-14T03:41:04;12.80;;;8.23;;
74269;SDS011;62754;48.252;11.654;2023-05-14T03:43:32;13.38;;;7.78;;
74269;SDS011;62754;48.252;11.654;2023-05-14T03:45:58;13.52;;;9.05;;
74269;SDS011;62754;48.252;11.654;2023-05-14T03:48:24;13.35;;;8.45;;
74269;SDS011;62754;48.252;11.654;2023-05-14T03:50:49;13.60;;;8.63;;
74269;SDS011;62754;48.252;11.654;2023-05-14T03:53:15;15.07;;;8.48;;
74269;SDS011;62754;48.252;11.654;2023-05-14T03:55:41;12.25;;;7.97;;
74269;SDS011;62754;48.252;11.654;2023-05-14T03:58:09;13.10;;;8.27;;
74269;SDS011;62754;48.252;11.654;2023-05-14T04:00:35;11.50;;;7.40;;
74269;SDS011;62754;48.252;11.654;2023-05-14T04:03:00;12.00;;;8.23;;
74269;SDS011;62754;48.252;11.654;2023-05-14T04:05:26;13.38;;;7.60;;
74269;SDS011;62754;48.252;11.654;2023-05-14T04:07:54;16.30;;;9.60;;
74269;SDS011;62754;48.252;11.654;2023-05-14T04:10:20;15.98;;;7.80;;
74269;SDS011;62754;48.252;11.654;2023-05-14T04:12:48;14.65;;;8.73;;
74269;SDS011;62754;48.252;11.654;2023-05-14T04:15:16;14.00;;;8.85;;
74269;SDS011;62754;48.252;11.654;2023-05-14T04:17:42;13.38;;;8.07;;
74269;SDS011;62754;48.252;11.654;2023-05-14T04:20:10;14.52;;;9.15;;
74269;SDS011;62754;48.252;11.654;2023-05-14T04:22:36;12.68;;;8.15;;
74269;SDS011;62754;48.252;11.654;2023-05-14T04:25:02;13.65;;;9.02;;
74269;SDS011;62754;48.252;11.654;2023-05-14T04:27:28;14.65;;;8.52;;
74269;SDS011;62754;48.252;11.654;2023-05-14T04:29:59;12.95;;;8.88;;
74269;SDS011;62754;48.252;11.654;2023-05-14T04:32:27;15.23;;;8.65;;
74269;SDS011;62754;48.252;11.654;2023-05-14T04:34:55;13.88;;;8.50;;
74269;SDS011;62754;48.252;11.654;2023-05-14T04:37:21;16.35;;;9.40;;
74269;SDS011;62754;48.252;11.654;2023-05-14T04:39:49;14.05;;;9.07;;
74269;SDS011;62754;48.252;11.654;2023-05-14T04:42:17;17.05;;;9.38;;
74269;SDS011;62754;48.252;11.654;2023-05-14T04:44:45;15.05;;;8.98;;
74269;SDS011;62754;48.252;11.654;2023-05-14T04:47:13;16.65;;;8.95;;
74269;SDS011;62754;48.252;11.654;2023-05-14T04:49:41;14.50;;;9.23;;
74269;SDS011;62754;48.252;11.654;2023-05-14T04:52:07;16.23;;;8.63;;
74269;SDS011;62754;48.252;11.654;2023-05-14T04:54:35;16.13;;;10.13;;
74269;SDS011;62754;48.252;11.654;2023-05-14T04:57:03;16.02;;;9.35;;
74269;SDS011;62754;48.252;11.654;2023-05-14T04:59:30;16.77;;;10.10;;
74269;SDS011;62754;48.252;11.654;2023-05-14T05:01:56;18.15;;;10.70;;
74269;SDS011;62754;48.252;11.654;2023-05-14T05:04:26;19.63;;;9.60;;
74269;SDS011;62754;48.252;11.654;2023-05-14T05:06:52;18.48;;;10.00;;
74269;SDS011;62754;48.252;11.654;2023-05-14T05:09:18;22.35;;;10.68;;
74269;SDS011;62754;48.252;11.654;2023-05-14T05:11:43;23.20;;;10.93;;
74269;SDS011;62754;48.252;11.654;2023-05-14T05:14:09;23.95;;;11.68;;
74269;SDS011;62754;48.252;11.654;2023-05-14T05:16:35;21.80;;;11.60;;
74269;SDS011;62754;48.252;11.654;2023-05-14T05:19:01;20.40;;;10.32;;
74269;SDS011;62754;48.252;11.654;2023-05-14T05:21:26;19.30;;;10.25;;
74269;SDS011;62754;48.252;11.654;2023-05-14T05:23:54;21.35;;;11.23;;
74269;SDS011;62754;48.252;11.654;2023-05-14T05:26:23;21.65;;;10.38;;
74269;SDS011;62754;48.252;11.654;2023-05-14T05:28:51;21.40;;;10.82;;
74269;SDS011;62754;48.252;11.654;2023-05-14T05:31:19;19.48;;;11.20;;
74269;SDS011;62754;48.252;11.654;2023-05-14T05:33:50;22.05;;;11.63;;
74269;SDS011;62754;48.252;11.654;2023-05-14T05:36:20;20.50;;;11.00;;
74269;SDS011;62754;48.252;11.654;2023-05-14T05:38:46;23.90;;;11.45;;
74269;SDS011;62754;48.252;11.654;2023-05-14T05:41:14;20.77;;;10.90;;
74269;SDS011;62754;48.252;11.654;2023-05-14T05:43:40;22.45;;;11.27;;
74269;SDS011;62754;48.252;11.654;2023-05-14T05:46:05;20.33;;;11.57;;
74269;SDS011;62754;48.252;11.654;2023-05-14T05:48:33;23.90;;;11.35;;
74269;SDS011;62754;48.252;11.654;2023-05-14T05:50:59;19.30;;;10.75;;
74269;SDS011;62754;48.252;11.654;2023-05-14T05:53:25;24.70;;;12.35;;
74269;SDS011;62754;48.252;11.654;2023-05-14T05:55:54;21.83;;;11.43;;
74269;SDS011;62754;48.252;11.654;2023-05-14T05:58:23;22.50;;;11.93;;
74269;SDS011;62754;48.252;11.654;2023-05-14T06:00:48;21.52;;;10.55;;
74269;SDS011;62754;48.252;11.654;2023-05-14T06:03:19;20.73;;;11.48;;
74269;SDS011;62754;48.252;11.654;2023-05-14T06:05:45;20.65;;;11.00;;
74269;SDS011;62754;48.252;11.654;2023-05-14T06:08:16;20.13;;;10.68;;
74269;SDS011;62754;48.252;11.654;2023-05-14T06:10:45;18.88;;;10.40;;
74269;SDS011;62754;48.252;11.654;2023-05-14T06:13:10;20.42;;;11.10;;
74269;SDS011;62754;48.252;11.654;2023-05-14T06:15:41;17.83;;;9.90;;
74269;SDS011;62754;48.252;11.654;2023-05-14T06:18:07;17.77;;;10.13;;
74269;SDS011;62754;48.252;11.654;2023-05-14T06:20:32;20.88;;;10.63;;
74269;SDS011;62754;48.252;11.654;2023-05-14T06:22:58;16.10;;;8.85;;
74269;SDS011;62754;48.252;11.654;2023-05-14T06:25:24;19.58;;;9.18;;
74269;SDS011;62754;48.252;11.654;2023-05-14T06:27:50;19.30;;;9.80;;
74269;SDS011;62754;48.252;11.654;2023-05-14T06:30:18;17.05;;;9.63;;
74269;SDS011;62754;48.252;11.654;2023-05-14T06:32:53;17.73;;;11.35;;
74269;SDS011;62754;48.252;11.654;2023-05-14T06:35:18;16.83;;;9.70;;
74269;SDS011;62754;48.252;11.654;2023-05-14T06:37:44;16.08;;;9.32;;
74269;SDS011;62754;48.252;11.654;2023-05-14T06:40:10;15.23;;;9.32;;
74269;SDS011;62754;48.252;11.654;2023-05-14T06:42:39;14.30;;;8.32;;
74269;SDS011;62754;48.252;11.654;2023-05-14T06:45:05;15.90;;;8.52;;
74269;SDS011;62754;48.252;11.654;2023-05-14T06:47:31;17.15;;;8.57;;
74269;SDS011;62754;48.252;11.654;2023-05-14T06:50:02;15.90;;;9.30;;
74269;SDS011;62754;48.252;11.654;2023-05-14T06:52:30;13.90;;;8.93;;
74269;SDS011;62754;48.252;11.654;2023-05-14T06:54:55;17.73;;;10.68;;
74269;SDS011;62754;48.252;11.654;2023-05-14T06:57:23;14.55;;;9.05;;
74269;SDS011;62754;48.252;11.654;2023-05-14T06:59:52;21.45;;;9.88;;
74269;SDS011;62754;48.252;11.654;2023-05-14T07:02:20;20.40;;;9.95;;
74269;SDS011;62754;48.252;11.654;2023-05-14T07:04:48;17.17;;;10.30;;
74269;SDS011;62754;48.252;11.654;2023-05-14T07:07:13;16.08;;;9.05;;
74269;SDS011;62754;48.252;11.654;2023-05-14T07:09:46;13.85;;;7.93;;
74269;SDS011;62754;48.252;11.654;2023-05-14T07:17:06;14.85;;;8.50;;
74269;SDS011;62754;48.252;11.654;2023-05-14T07:19:36;13.43;;;8.73;;
74269;SDS011;62754;48.252;11.654;2023-05-14T07:22:02;15.68;;;8.88;;
74269;SDS011;62754;48.252;11.654;2023-05-14T07:24:34;15.52;;;9.05;;
74269;SDS011;62754;48.252;11.654;2023-05-14T07:26:59;16.45;;;9.23;;
74269;SDS011;62754;48.252;11.654;2023-05-14T07:29:29;16.92;;;9.73;;
74269;SDS011;62754;48.252;11.654;2023-05-14T07:31:55;14.77;;;9.38;;
74269;SDS011;62754;48.252;11.654;2023-05-14T07:34:25;16.80;;;9.73;;
74269;SDS011;62754;48.252;11.654;2023-05-14T07:36:51;15.82;;;9.38;;
74269;SDS011;62754;48.252;11.654;2023-05-14T07:39:20;14.52;;;8.98;;
74269;SDS011;62754;48.252;11.654;2023-05-14T07:41:46;15.35;;;9.25;;
74269;SDS011;62754;48.252;11.654;2023-05-14T07:44:11;15.35;;;8.75;;
74269;SDS011;62754;48.252;11.654;2023-05-14T07:46:39;17.25;;;9.20;;
74269;SDS011;62754;48.252;11.654;2023-05-14T07:49:09;17.50;;;9.63;;
74269;SDS011;62754;48.252;11.654;2023-05-14T07:51:38;14.43;;;8.95;;
74269;SDS011;62754;48.252;11.654;2023-05-14T07:54:05;14.13;;;8.90;;
74269;SDS011;62754;48.252;11.654;2023-05-14T07:56:31;15.15;;;9.43;;
74269;SDS011;62754;48.252;11.654;2023-05-14T07:58:59;14.20;;;8.57;;
74269;SDS011;62754;48.252;11.654;2023-05-14T08:01:29;15.07;;;8.50;;
74269;SDS011;62754;48.252;11.654;2023-05-14T08:03:55;14.70;;;8.00;;
74269;SDS011;62754;48.252;11.654;2023-05-14T08:06:21;15.13;;;8.27;;
74269;SDS011;62754;48.252;11.654;2023-05-14T08:08:49;13.43;;;8.30;;
74269;SDS011;62754;48.252;11.654;2023-05-14T08:11:17;13.90;;;8.27;;
74269;SDS011;62754;48.252;11.654;2023-05-14T08:13:45;12.98;;;9.13;;
74269;SDS011;62754;48.252;11.654;2023-05-14T08:16:10;11.77;;;7.90;;
74269;SDS011;62754;48.252;11.654;2023-05-14T08:18:36;11.68;;;7.57;;
74269;SDS011;62754;48.252;11.654;2023-05-14T08:21:02;11.85;;;7.85;;
74269;SDS011;62754;48.252;11.654;2023-05-14T08:23:28;11.70;;;7.82;;
74269;SDS011;62754;48.252;11.654;2023-05-14T08:25:56;12.45;;;8.05;;
74269;SDS011;62754;48.252;11.654;2023-05-14T08:28:24;12.18;;;8.15;;
74269;SDS011;62754;48.252;11.654;2023-05-14T08:30:52;12.18;;;8.13;;
74269;SDS011;62754;48.252;11.654;2023-05-14T08:33:17;13.30;;;8.27;;
74269;SDS011;62754;48.252;11.654;2023-05-14T08:35:43;14.18;;;9.38;;
74269;SDS011;62754;48.252;11.654;2023-05-14T08:38:09;14.25;;;9.48;;
74269;SDS011;62754;48.252;11.654;2023-05-14T08:40:35;15.38;;;10.45;;
74269;SDS011;62754;48.252;11.654;2023-05-14T08:43:01;13.48;;;9.82;;
74269;SDS011;62754;48.252;11.654;2023-05-14T08:45:28;14.48;;;10.60;;
74269;SDS011;62754;48.252;11.654;2023-05-14T08:47:58;13.15;;;8.80;;
74269;SDS011;62754;48.252;11.654;2023-05-14T08:50:24;12.43;;;9.27;;
74269;SDS011;62754;48.252;11.654;2023-05-14T08:52:55;13.32;;;8.35;;
74269;SDS011;62754;48.252;11.654;2023-05-14T08:55:21;13.43;;;7.63;;
74269;SDS011;62754;48.252;11.654;2023-05-14T08:57:49;13.27;;;8.05;;
74269;SDS011;62754;48.252;11.654;2023-05-14T09:00:24;9.63;;;7.25;;
74269;SDS011;62754;48.252;11.654;2023-05-14T09:02:55;10.75;;;7.30;;
74269;SDS011;62754;48.252;11.654;2023-05-14T09:05:21;9.65;;;6.43;;
74269;SDS011;62754;48.252;11.654;2023-05-14T09:07:50;10.88;;;7.05;;
74269;SDS011;62754;48.252;11.654;2023-05-14T09:10:18;10.30;;;7.75;;
74269;SDS011;62754;48.252;11.654;2023-05-14T09:12:44;10.73;;;7.47;;
74269;SDS011;62754;48.252;11.654;2023-05-14T09:15:10;9.95;;;7.15;;
74269;SDS011;62754;48.252;11.654;2023-05-14T09:17:38;10.25;;;6.72;;
74269;SDS011;62754;48.252;11.654;2023-05-14T09:20:06;10.90;;;7.18;;
74269;SDS011;62754;48.252;11.654;2023-05-14T09:22:37;10.45;;;7.53;;
74269;SDS011;62754;48.252;11.654;2023-05-14T09:27:32;9.82;;;6.60;;
74269;SDS011;62754;48.252;11.654;2023-05-14T09:30:06;9.68;;;6.53;;
74269;SDS011;62754;48.252;11.654;2023-05-14T09:32:40;9.75;;;6.40;;
74269;SDS011;62754;48.252;11.654;2023-05-14T09:35:18;9.90;;;5.95;;
74269;SDS011;62754;48.252;11.654;2023-05-14T09:37:47;9.85;;;6.40;;
74269;SDS011;62754;48.252;11.654;2023-05-14T09:40:14;9.02;;;5.65;;
74269;SDS011;62754;48.252;11.654;2023-05-14T09:42:44;10.45;;;6.15;;
74269;SDS011;62754;48.252;11.654;2023-05-14T09:45:12;8.18;;;5.95;;
74269;SDS011;62754;48.252;11.654;2023-05-14T09:47:40;8.80;;;5.70;;
74269;SDS011;62754;48.252;11.654;2023-05-14T09:50:06;8.25;;;5.72;;
74269;SDS011;62754;48.252;11.654;2023-05-14T09:54:59;8.45;;;5.95;;
74269;SDS011;62754;48.252;11.654;2023-05-14T09:57:27;8.52;;;5.78;;
74269;SDS011;62754;48.252;11.654;2023-05-14T09:59:53;8.25;;;5.80;;
74269;SDS011;62754;48.252;11.654;2023-05-14T10:02:29;8.82;;;5.10;;
74269;SDS011;62754;48.252;11.654;2023-05-14T10:05:02;8.43;;;5.65;;
74269;SDS011;62754;48.252;11.654;2023-05-14T10:07:32;8.73;;;5.70;;
74269;SDS011;62754;48.252;11.654;2023-05-14T10:10:05;9.60;;;6.20;;
74269;SDS011;62754;48.252;11.654;2023-05-14T10:12:40;7.10;;;5.38;;
74269;SDS011;62754;48.252;11.654;2023-05-14T10:15:18;7.57;;;5.47;;
74269;SDS011;62754;48.252;11.654;2023-05-14T10:17:51;7.20;;;5.50;;
74269;SDS011;62754;48.252;11.654;2023-05-14T10:20:20;10.00;;;6.07;;
74269;SDS011;62754;48.252;11.654;2023-05-14T10:22:47;8.30;;;5.35;;
74269;SDS011;62754;48.252;11.654;2023-05-14T10:25:13;8.55;;;5.15;;
74269;SDS011;62754;48.252;11.654;2023-05-14T10:27:39;8.30;;;5.53;;
74269;SDS011;62754;48.252;11.654;2023-05-14T10:30:09;8.05;;;5.65;;
74269;SDS011;62754;48.252;11.654;2023-05-14T10:32:35;8.95;;;6.40;;
74269;SDS011;62754;48.252;11.654;2023-05-14T10:35:06;9.27;;;6.90;;
74269;SDS011;62754;48.252;11.654;2023-05-14T10:37:43;7.60;;;6.00;;
74269;SDS011;62754;48.252;11.654;2023-05-14T10:40:09;8.07;;;5.50;;
74269;SDS011;62754;48.252;11.654;2023-05-14T10:42:36;8.32;;;6.03;;
74269;SDS011;62754;48.252;11.654;2023-05-14T10:45:04;9.23;;;5.93;;
74269;SDS011;62754;48.252;11.654;2023-05-14T10:47:30;7.60;;;5.72;;
74269;SDS011;62754;48.252;11.654;2023-05-14T10:49:57;8.45;;;5.80;;
74269;SDS011;62754;48.252;11.654;2023-05-14T10:52:24;10.18;;;7.03;;
74269;SDS011;62754;48.252;11.654;2023-05-14T10:54:54;10.02;;;6.32;;
74269;SDS011;62754;48.252;11.654;2023-05-14T10:57:22;8.15;;;6.03;;
74269;SDS011;62754;48.252;11.654;2023-05-14T10:59:52;7.95;;;5.78;;
74269;SDS011;62754;48.252;11.654;2023-05-14T11:02:20;10.25;;;7.78;;
74269;SDS011;62754;48.252;11.654;2023-05-14T11:12:33;9.57;;;6.40;;
74269;SDS011;62754;48.252;11.654;2023-05-14T11:15:02;8.02;;;5.75;;
74269;SDS011;62754;48.252;11.654;2023-05-14T11:17:29;7.65;;;5.18;;
74269;SDS011;62754;48.252;11.654;2023-05-14T11:19:59;8.60;;;6.05;;
74269;SDS011;62754;48.252;11.654;2023-05-14T11:22:25;8.80;;;5.57;;
74269;SDS011;62754;48.252;11.654;2023-05-14T11:24:54;7.85;;;5.90;;
74269;SDS011;62754;48.252;11.654;2023-05-14T11:27:21;7.53;;;5.25;;
74269;SDS011;62754;48.252;11.654;2023-05-14T11:29:52;9.00;;;5.78;;
74269;SDS011;62754;48.252;11.654;2023-05-14T11:32:18;7.55;;;5.53;;
74269;SDS011;62754;48.252;11.654;2023-05-14T11:34:45;7.35;;;5.72;;
74269;SDS011;62754;48.252;11.654;2023-05-14T11:37:11;8.40;;;5.85;;
74269;SDS011;62754;48.252;11.654;2023-05-14T11:39:44;8.88;;;5.18;;
74269;SDS011;62754;48.252;11.654;2023-05-14T11:42:11;9.07;;;5.95;;
74269;SDS011;62754;48.252;11.654;2023-05-14T11:44:38;7.05;;;5.40;;
74269;SDS011;62754;48.252;11.654;2023-05-14T11:47:09;8.05;;;5.82;;
74269;SDS011;62754;48.252;11.654;2023-05-14T11:49:37;8.23;;;6.28;;
74269;SDS011;62754;48.252;11.654;2023-05-14T11:52:03;8.20;;;5.72;;
74269;SDS011;62754;48.252;11.654;2023-05-14T11:54:33;7.43;;;5.60;;
74269;SDS011;62754;48.252;11.654;2023-05-14T11:57:11;8.00;;;5.00;;
74269;SDS011;62754;48.252;11.654;2023-05-14T11:59:39;8.50;;;5.75;;
74269;SDS011;62754;48.252;11.654;2023-05-14T12:02:14;6.93;;;5.25;;
74269;SDS011;62754;48.252;11.654;2023-05-14T12:04:42;6.95;;;5.55;;
74269;SDS011;62754;48.252;11.654;2023-05-14T12:07:17;6.28;;;5.30;;
74269;SDS011;62754;48.252;11.654;2023-05-14T12:09:43;7.80;;;5.68;;
74269;SDS011;62754;48.252;11.654;2023-05-14T12:12:12;7.80;;;5.82;;
74269;SDS011;62754;48.252;11.654;2023-05-14T12:14:46;8.77;;;6.03;;
74269;SDS011;62754;48.252;11.654;2023-05-14T12:19:42;6.50;;;5.13;;
74269;SDS011;62754;48.252;11.654;2023-05-14T12:22:13;7.88;;;5.32;;
74269;SDS011;62754;48.252;11.654;2023-05-14T12:24:42;7.82;;;5.20;;
74269;SDS011;62754;48.252;11.654;2023-05-14T12:27:20;6.70;;;5.18;;
74269;SDS011;62754;48.252;11.654;2023-05-14T12:29:46;6.05;;;4.68;;
74269;SDS011;62754;48.252;11.654;2023-05-14T12:32:15;5.88;;;4.78;;
74269;SDS011;62754;48.252;11.654;2023-05-14T12:34:44;6.30;;;4.60;;
74269;SDS011;62754;48.252;11.654;2023-05-14T12:37:09;5.38;;;4.07;;
74269;SDS011;62754;48.252;11.654;2023-05-14T12:39:37;5.45;;;4.05;;
74269;SDS011;62754;48.252;11.654;2023-05-14T12:42:05;6.00;;;4.47;;
74269;SDS011;62754;48.252;11.654;2023-05-14T12:44:31;5.43;;;4.30;;
74269;SDS011;62754;48.252;11.654;2023-05-14T12:47:01;6.05;;;4.35;;
74269;SDS011;62754;48.252;11.654;2023-05-14T12:49:27;6.40;;;4.55;;
74269;SDS011;62754;48.252;11.654;2023-05-14T12:51:53;6.40;;;4.50;;
74269;SDS011;62754;48.252;11.654;2023-05-14T12:54:28;5.55;;;4.68;;
74269;SDS011;62754;48.252;11.654;2023-05-14T12:56:54;5.80;;;4.90;;
74269;SDS011;62754;48.252;11.654;2023-05-14T12:59:19;5.88;;;4.75;;
74269;SDS011;62754;48.252;11.654;2023-05-14T13:01:49;5.68;;;4.40;;
74269;SDS011;62754;48.252;11.654;2023-05-14T13:04:15;5.28;;;4.05;;
74269;SDS011;62754;48.252;11.654;2023-05-14T13:06:41;5.22;;;4.00;;
74269;SDS011;62754;48.252;11.654;2023-05-14T13:09:11;4.90;;;3.70;;
74269;SDS011;62754;48.252;11.654;2023-05-14T13:11:39;6.35;;;4.20;;
74269;SDS011;62754;48.252;11.654;2023-05-14T13:14:05;4.85;;;3.80;;
74269;SDS011;62754;48.252;11.654;2023-05-14T13:16:33;4.22;;;3.22;;
74269;SDS011;62754;48.252;11.654;2023-05-14T13:19:01;4.10;;;3.42;;
74269;SDS011;62754;48.252;11.654;2023-05-14T13:21:29;4.28;;;3.15;;
74269;SDS011;62754;48.252;11.654;2023-05-14T13:23:55;4.32;;;3.42;;
74269;SDS011;62754;48.252;11.654;2023-05-14T13:26:23;5.63;;;3.90;;
74269;SDS011;62754;48.252;11.654;2023-05-14T13:28:49;6.07;;;4.20;;
74269;SDS011;62754;48.252;11.654;2023-05-14T13:33:57;4.90;;;3.60;;
74269;SDS011;62754;48.252;11.654;2023-05-14T13:36:25;4.93;;;4.28;;
74269;SDS011;62754;48.252;11.654;2023-05-14T13:38:51;4.43;;;3.63;;
74269;SDS011;62754;48.252;11.654;2023-05-14T13:41:16;4.15;;;3.47;;
74269;SDS011;62754;48.252;11.654;2023-05-14T13:43:44;4.45;;;3.35;;
74269;SDS011;62754;48.252;11.654;2023-05-14T13:46:10;3.95;;;3.05;;
74269;SDS011;62754;48.252;11.654;2023-05-14T13:48:38;4.10;;;3.22;;
74269;SDS011;62754;48.252;11.654;2023-05-14T13:51:06;4.20;;;3.10;;
74269;SDS011;62754;48.252;11.654;2023-05-14T13:53:34;3.85;;;2.63;;
74269;SDS011;62754;48.252;11.654;2023-05-14T13:56:04;4.63;;;3.08;;
74269;SDS011;62754;48.252;11.654;2023-05-14T13:58:30;4.20;;;3.10;;
74269;SDS011;62754;48.252;11.654;2023-05-14T14:01:00;5.28;;;2.90;;
74269;SDS011;62754;48.252;11.654;2023-05-14T14:03:26;3.50;;;2.80;;
74269;SDS011;62754;48.252;11.654;2023-05-14T14:08:17;3.10;;;1.90;;
74269;SDS011;62754;48.252;11.654;2023-05-14T14:13:09;3.10;;;2.30;;
74269;SDS011;62754;48.252;11.654;2023-05-14T14:18:01;3.72;;;2.45;;
74269;SDS011;62754;48.252;11.654;2023-05-14T14:20:31;5.03;;;3.20;;
74269;SDS011;62754;48.252;11.654;2023-05-14T14:22:59;3.70;;;2.50;;
74269;SDS011;62754;48.252;11.654;2023-05-14T14:25:25;4.38;;;2.40;;
74269;SDS011;62754;48.252;11.654;2023-05-14T14:28:00;3.33;;;2.50;;
74269;SDS011;62754;48.252;11.654;2023-05-14T14:30:26;3.10;;;2.30;;
74269;SDS011;62754;48.252;11.654;2023-05-14T14:35:19;2.97;;;1.77;;
74269;SDS011;62754;48.252;11.654;2023-05-14T14:37:52;3.38;;;1.83;;
74269;SDS011;62754;48.252;11.654;2023-05-14T14:40:18;2.88;;;1.77;;
74269;SDS011;62754;48.252;11.654;2023-05-14T14:45:12;3.85;;;1.70;;
74269;SDS011;62754;48.252;11.654;2023-05-14T14:47:41;3.05;;;2.00;;
74269;SDS011;62754;48.252;11.654;2023-05-14T14:50:07;3.65;;;1.60;;
74269;SDS011;62754;48.252;11.654;2023-05-14T14:52:35;2.90;;;1.98;;
74269;SDS011;62754;48.252;11.654;2023-05-14T14:55:01;2.83;;;1.63;;
74269;SDS011;62754;48.252;11.654;2023-05-14T14:57:29;2.80;;;2.00;;
74269;SDS011;62754;48.252;11.654;2023-05-14T15:02:23;2.60;;;1.85;;
74269;SDS011;62754;48.252;11.654;2023-05-14T15:04:49;6.00;;;1.95;;
74269;SDS011;62754;48.252;11.654;2023-05-14T15:07:15;3.65;;;1.80;;
74269;SDS011;62754;48.252;11.654;2023-05-14T15:12:06;2.88;;;1.85;;
74269;SDS011;62754;48.252;11.654;2023-05-14T15:14:34;3.67;;;1.60;;